Garcia Miguel — CUGT9 — position and weather

sailwx.info

Track history (hours):
 
Tides and Currents Weather Stations Pressure Air Temp Water Temp Dewpoint Dewpoint Depression Visibility Wind Speed Wind Dir Waves Ship Positions

Garcia Miguel

Last reported at 2016-Feb-10 19:31 UTC. Time now 2016-Feb-11 04:23 UTC.
Position N 39°21' W 009°22'.

Length 20 m.

Type: Fishing. MMSI: 263500286.

Date/timePositionNaut miles runAvg speedWind from/ knotsBaromVisibWave heightAir tempDewpointWater temp
2016-Feb-10 19:31N 39°21' W 009°22'0 0.0
2016-Feb-10 18:28N 39°21' W 009°22'0 0.1
2016-Feb-10 17:33N 39°21' W 009°22'0 0.0
2016-Feb-10 16:31N 39°21' W 009°22'0 0.0
2016-Feb-10 15:30N 39°21' W 009°22'0 0.0
2016-Feb-10 14:33N 39°21' W 009°22'0 0.0
2016-Feb-10 12:32N 39°21' W 009°22'0 0.1
2016-Feb-10 11:32N 39°21' W 009°22'0 0.0
2016-Feb-10 10:21N 39°21' W 009°22'0 0.0
2016-Feb-10 09:31N 39°21' W 009°22'0 0.0
2016-Feb-09 13:30N 39°21' W 009°22'0 0.0
2016-Feb-09 12:33N 39°21' W 009°22'0 0.0
2016-Feb-09 11:33N 39°21' W 009°22'0 0.0
2016-Feb-09 10:33N 39°21' W 009°22'0 0.1
2016-Feb-09 09:27N 39°21' W 009°22'0 0.0
2016-Feb-08 17:24N 39°21' W 009°22'0 0.0
2016-Feb-08 16:33N 39°21' W 009°22'0 0.0
2016-Feb-08 15:33N 39°21' W 009°22'0 0.0
2016-Feb-08 14:33N 39°21' W 009°22'0 0.0
2016-Feb-08 13:33N 39°21' W 009°22'0 0.0
2016-Feb-08 12:33N 39°21' W 009°22'0 0.0
2016-Feb-08 11:15N 39°21' W 009°22'0 0.0
2016-Feb-08 10:33N 39°21' W 009°22'0 0.0
2016-Feb-08 09:33N 39°21' W 009°22'0 0.0
2016-Feb-06 19:12N 39°21' W 009°22'5 7.1
2016-Feb-06 18:33N 39°18' W 009°27'8 7.8
2016-Feb-06 17:33N 39°16' W 009°36'8 7.6
2016-Feb-06 16:33N 39°14' W 009°46'8 7.6
2016-Feb-06 15:32N 39°11' W 009°55'8 8.3
2016-Feb-06 14:32N 39°08' W 010°05'7 6.9
2016-Feb-06 13:32N 39°04' W 010°12'5 5.2
2016-Feb-06 12:32N 38°59' W 010°15'5 5.4
2016-Feb-06 11:32N 38°55' W 010°10'4 4.3
2016-Feb-06 10:32N 38°53' W 010°15'4 3.4
2016-Feb-06 09:29N 38°50' W 010°12'5 5.6
2016-Feb-06 08:32N 38°47' W 010°06'2 2.0
2016-Feb-06 07:32N 38°45' W 010°07'6 6.4
2016-Feb-06 06:32N 38°48' W 010°15'2 1.7
2016-Feb-06 05:29N 38°50' W 010°15'0 0.4
2016-Feb-06 04:32N 38°50' W 010°15'0 0.5
2016-Feb-06 03:32N 38°49' W 010°15'0 0.5
2016-Feb-06 02:32N 38°49' W 010°15'3 2.7
2016-Feb-06 01:32N 38°51' W 010°15'7 6.6
2016-Feb-06 00:32N 38°58' W 010°13'6 6.4
2016-Feb-05 23:33N 39°04' W 010°12'1 1.0
2016-Feb-05 22:32N 39°05' W 010°13'8 7.9
2016-Feb-05 21:32N 38°57' W 010°12'6 5.5
2016-Feb-05 20:32N 38°52' W 010°10'7 7.2
2016-Feb-05 19:32N 38°51' W 010°19'6 6.4
2016-Feb-05 18:32N 38°49' W 010°11'5 5.1
2016-Feb-05 17:32N 38°47' W 010°05'7 6.7
2016-Feb-05 16:32N 38°46' W 010°14'  
Track history (hours):
 
Tides and Currents Weather Stations Pressure Air Temp Water Temp Dewpoint Dewpoint Depression Visibility Wind Speed Wind Dir Waves Ship Positions

Garcia Miguel

Last reported at 2016-Feb-10 19:31 UTC. Time now 2016-Feb-11 04:23 UTC.
Position N 39°21' W 009°22'.

Length 20 m.

Type: Fishing. MMSI: 263500286.

Date/timePositionNaut miles runAvg speedWind from/ knotsBaromVisibWave heightAir tempDewpointWater temp
2016-Feb-10 19:31N 39°21' W 009°22'0 0.0
2016-Feb-10 18:28N 39°21' W 009°22'0 0.1
2016-Feb-10 17:33N 39°21' W 009°22'0 0.0
2016-Feb-10 16:31N 39°21' W 009°22'0 0.0
2016-Feb-10 15:30N 39°21' W 009°22'0 0.0
2016-Feb-10 14:33N 39°21' W 009°22'0 0.0
2016-Feb-10 12:32N 39°21' W 009°22'0 0.1
2016-Feb-10 11:32N 39°21' W 009°22'0 0.0
2016-Feb-10 10:21N 39°21' W 009°22'0 0.0
2016-Feb-10 09:31N 39°21' W 009°22'0 0.0
2016-Feb-09 13:30N 39°21' W 009°22'0 0.0
2016-Feb-09 12:33N 39°21' W 009°22'0 0.0
2016-Feb-09 11:33N 39°21' W 009°22'0 0.0
2016-Feb-09 10:33N 39°21' W 009°22'0 0.1
2016-Feb-09 09:27N 39°21' W 009°22'0 0.0
2016-Feb-08 17:24N 39°21' W 009°22'0 0.0
2016-Feb-08 16:33N 39°21' W 009°22'0 0.0
2016-Feb-08 15:33N 39°21' W 009°22'0 0.0
2016-Feb-08 14:33N 39°21' W 009°22'0 0.0
2016-Feb-08 13:33N 39°21' W 009°22'0 0.0
2016-Feb-08 12:33N 39°21' W 009°22'0 0.0
2016-Feb-08 11:15N 39°21' W 009°22'0 0.0
2016-Feb-08 10:33N 39°21' W 009°22'0 0.0
2016-Feb-08 09:33N 39°21' W 009°22'0 0.0
2016-Feb-06 19:12N 39°21' W 009°22'5 7.1
2016-Feb-06 18:33N 39°18' W 009°27'8 7.8
2016-Feb-06 17:33N 39°16' W 009°36'8 7.6
2016-Feb-06 16:33N 39°14' W 009°46'8 7.6
2016-Feb-06 15:32N 39°11' W 009°55'8 8.3
2016-Feb-06 14:32N 39°08' W 010°05'7 6.9
2016-Feb-06 13:32N 39°04' W 010°12'5 5.2
2016-Feb-06 12:32N 38°59' W 010°15'5 5.4
2016-Feb-06 11:32N 38°55' W 010°10'4 4.3
2016-Feb-06 10:32N 38°53' W 010°15'4 3.4
2016-Feb-06 09:29N 38°50' W 010°12'5 5.6
2016-Feb-06 08:32N 38°47' W 010°06'2 2.0
2016-Feb-06 07:32N 38°45' W 010°07'6 6.4
2016-Feb-06 06:32N 38°48' W 010°15'2 1.7
2016-Feb-06 05:29N 38°50' W 010°15'0 0.4
2016-Feb-06 04:32N 38°50' W 010°15'0 0.5
2016-Feb-06 03:32N 38°49' W 010°15'0 0.5
2016-Feb-06 02:32N 38°49' W 010°15'3 2.7
2016-Feb-06 01:32N 38°51' W 010°15'7 6.6
2016-Feb-06 00:32N 38°58' W 010°13'6 6.4
2016-Feb-05 23:33N 39°04' W 010°12'1 1.0
2016-Feb-05 22:32N 39°05' W 010°13'8 7.9
2016-Feb-05 21:32N 38°57' W 010°12'6 5.5
2016-Feb-05 20:32N 38°52' W 010°10'7 7.2
2016-Feb-05 19:32N 38°51' W 010°19'6 6.4
2016-Feb-05 18:32N 38°49' W 010°11'5 5.1
2016-Feb-05 17:32N 38°47' W 010°05'7 6.7
2016-Feb-05 16:32N 38°46' W 010°14'  

Dump ship's entire track history